Time;durP1;ratioP1;P1;durP2;ratioP2;P2;SDS_P1;SDS_P2;PMS_P1;PMS_P2;Temp;Humidity;BMP_temperature;BMP_pressure;BME280_temperature;BME280_humidity;BME280_pressure;Samples;Min_cycle;Max_cycle;Signal;HPM_P1;HPM_P2
2022/11/29 00:01:38;;;;;;;15.82;4.68;;;4.30;99.90;;;;;;4388883;32;20065;-72
2022/11/29 00:04:04;;;;;;;4.65;1.50;;;4.30;99.90;;;;;;4377432;32;20082;-76
2022/11/29 00:06:32;;;;;;;3.50;2.40;;;4.30;99.90;;;;;;4369166;32;20094;-74
2022/11/29 00:09:01;;;;;;;6.55;1.83;;;4.30;99.90;;;;;;4386420;32;20419;-71
2022/11/29 00:12:31;;;;;;;2.25;2.00;;;4.20;99.90;;;;;;4385951;32;20501;-74
2022/11/29 00:14:18;;;;;;;4.00;1.70;;;4.20;99.90;;;;;;4374160;32;20145;-71
2022/11/29 00:16:43;;;;;;;15.38;2.28;;;4.20;99.90;;;;;;4386417;32;20125;-71
2022/11/29 00:19:11;;;;;;;1.52;1.42;;;4.20;99.90;;;;;;4386861;32;20070;-75
2022/11/29 00:21:37;;;;;;;0.88;0.82;;;4.20;99.90;;;;;;4387758;32;20107;-73
2022/11/29 00:24:03;;;;;;;5.37;1.75;;;4.20;99.90;;;;;;4387283;32;20090;-73
2022/11/29 00:26:28;;;;;;;3.42;1.95;;;4.30;99.90;;;;;;4387090;32;20122;-74
2022/11/29 00:28:54;;;;;;;1.02;0.95;;;4.20;99.90;;;;;;4389445;32;20831;-75
2022/11/29 00:31:22;;;;;;;7.22;3.42;;;4.30;99.90;;;;;;4388974;32;20090;-73
2022/11/29 00:33:48;;;;;;;1.77;1.35;;;4.20;99.90;;;;;;4377586;32;20585;-75
2022/11/29 00:36:14;;;;;;;2.67;1.73;;;4.20;99.90;;;;;;4368028;32;20103;-76
2022/11/29 00:38:40;;;;;;;1.75;1.65;;;4.30;99.90;;;;;;4387321;32;20094;-73
2022/11/29 00:41:06;;;;;;;4.22;3.33;;;4.20;99.90;;;;;;4389310;32;20545;-74
2022/11/29 00:43:31;;;;;;;1.92;1.77;;;4.10;99.90;;;;;;4387545;32;20062;-72
2022/11/29 00:45:57;;;;;;;4.93;2.70;;;4.10;99.90;;;;;;4387792;32;20725;-74
2022/11/29 00:48:22;;;;;;;6.47;2.47;;;4.20;99.90;;;;;;4387300;32;20078;-71
2022/11/29 00:50:48;;;;;;;1.67;1.58;;;4.20;99.90;;;;;;4388451;32;20193;-73
2022/11/29 00:53:13;;;;;;;2.20;1.10;;;4.30;99.90;;;;;;4386638;32;20106;-71
2022/11/29 00:55:39;;;;;;;7.45;1.50;;;4.40;99.90;;;;;;4387273;32;20106;-71
2022/11/29 00:58:05;;;;;;;2.58;2.08;;;4.30;99.90;;;;;;4387344;32;20082;-70
2022/11/29 01:00:30;;;;;;;2.17;1.37;;;4.30;99.90;;;;;;4384142;32;20069;-70
2022/11/29 01:02:56;;;;;;;9.00;2.85;;;4.30;99.90;;;;;;4384006;32;20054;-77
2022/11/29 01:05:21;;;;;;;2.55;1.73;;;4.30;99.90;;;;;;4365534;32;20090;-76
2022/11/29 01:07:47;;;;;;;2.20;1.77;;;4.30;99.90;;;;;;4379085;32;20125;-75
2022/11/29 01:10:12;;;;;;;3.85;2.17;;;4.30;99.90;;;;;;4386502;32;20117;-74
2022/11/29 01:12:39;;;;;;;1.42;1.33;;;4.30;99.90;;;;;;4386318;32;20107;-74
2022/11/29 01:15:06;;;;;;;2.37;1.62;;;4.30;99.90;;;;;;4385571;32;20066;-73
2022/11/29 01:17:34;;;;;;;1.92;1.80;;;4.30;99.90;;;;;;4384956;32;20529;-73
2022/11/29 01:19:59;;;;;;;1.60;1.50;;;4.30;99.90;;;;;;4386728;32;20546;-73
2022/11/29 01:22:25;;;;;;;6.15;3.45;;;4.30;99.90;;;;;;4386322;32;20101;-73
2022/11/29 01:24:50;;;;;;;3.22;1.77;;;4.40;99.90;;;;;;4384876;32;20074;-72
2022/11/29 01:27:16;;;;;;;1.20;1.00;;;4.40;99.90;;;;;;4385805;32;20177;-75
2022/11/29 01:29:41;;;;;;;7.90;2.08;;;4.30;99.90;;;;;;4388979;32;20109;-72
2022/11/29 01:32:07;;;;;;;1.05;1.05;;;4.40;99.90;;;;;;4386095;32;20193;-74
2022/11/29 01:34:32;;;;;;;3.33;2.03;;;4.30;99.90;;;;;;4374791;32;20137;-77
2022/11/29 01:36:57;;;;;;;2.95;1.73;;;4.40;99.90;;;;;;4371909;32;20117;-74
2022/11/29 01:39:24;;;;;;;2.62;1.90;;;4.50;99.90;;;;;;4387595;32;20089;-73
2022/11/29 01:41:49;;;;;;;1.17;1.17;;;4.50;99.90;;;;;;4384821;32;20134;-72
2022/11/29 01:44:17;;;;;;;3.45;2.65;;;4.50;99.90;;;;;;4386455;32;20090;-72
2022/11/29 01:46:45;;;;;;;4.22;2.25;;;4.30;99.90;;;;;;4387348;32;20082;-74
2022/11/29 01:49:21;;;;;;;3.72;2.25;;;4.40;99.90;;;;;;4388134;32;20529;-72
2022/11/29 01:51:51;;;;;;;2.33;1.37;;;4.30;99.90;;;;;;4385833;32;20065;-73
2022/11/29 01:54:17;;;;;;;1.40;1.30;;;4.40;99.90;;;;;;4387057;32;20066;-74
2022/11/29 01:56:44;;;;;;;7.10;3.47;;;4.30;99.90;;;;;;4387894;32;20066;-74
2022/11/29 01:59:14;;;;;;;6.18;1.23;;;4.40;99.90;;;;;;4389576;32;20066;-74
2022/11/29 02:01:41;;;;;;;4.70;1.83;;;4.40;99.90;;;;;;4387512;32;20093;-72
2022/11/29 02:04:07;;;;;;;2.22;2.03;;;4.40;99.90;;;;;;4372642;32;20073;-75
2022/11/29 02:06:35;;;;;;;1.30;1.20;;;4.40;99.90;;;;;;4371298;32;20098;-76
2022/11/29 02:09:00;;;;;;;2.90;1.77;;;4.40;99.90;;;;;;4386089;32;20161;-74
2022/11/29 02:11:58;;;;;;;5.93;2.42;;;4.40;99.90;;;;;;4388180;32;20109;-74
2022/11/29 02:14:44;;;;;;;3.05;2.37;;;4.40;99.90;;;;;;4378789;32;20129;-72
2022/11/29 02:17:38;;;;;;;5.80;3.22;;;4.40;99.90;;;;;;4373280;32;20376;-74
2022/11/29 02:20:25;;;;;;;1.83;1.67;;;4.30;99.90;;;;;;4375041;32;20091;-72
2022/11/29 02:23:10;;;;;;;3.15;1.60;;;4.30;99.90;;;;;;4373286;32;20109;-73
2022/11/29 02:25:52;;;;;;;2.58;1.65;;;4.30;99.90;;;;;;4386140;32;20557;-73
2022/11/29 02:28:43;;;;;;;1.42;1.33;;;4.40;99.90;;;;;;4384785;32;20081;-73
2022/11/29 02:31:41;;;;;;;3.35;1.60;;;4.30;99.90;;;;;;4374442;32;20089;-72
2022/11/29 02:34:31;;;;;;;2.33;1.45;;;4.30;99.90;;;;;;4359647;32;20094;-74
2022/11/29 02:37:17;;;;;;;1.47;1.37;;;4.30;99.90;;;;;;4359226;32;20066;-72
2022/11/29 02:40:10;;;;;;;19.52;1.48;;;4.30;99.90;;;;;;4384328;32;20172;-72
2022/11/29 02:42:52;;;;;;;2.80;2.03;;;4.30;99.90;;;;;;4372811;32;20075;-75
2022/11/29 02:45:34;;;;;;;1.90;1.80;;;4.30;99.90;;;;;;4385538;32;20058;-72
2022/11/29 02:48:28;;;;;;;0.88;0.88;;;4.30;99.90;;;;;;4386861;32;20377;-72
2022/11/29 02:51:19;;;;;;;1.95;1.48;;;4.30;99.90;;;;;;4375148;32;20098;-74
2022/11/29 02:54:04;;;;;;;8.68;2.45;;;4.30;99.90;;;;;;4373161;32;20121;-73
2022/11/29 02:56:42;;;;;;;1.27;1.17;;;4.30;99.90;;;;;;4385224;32;20118;-72
2022/11/29 02:59:35;;;;;;;1.77;1.67;;;4.30;99.90;;;;;;4383478;32;20083;-72
2022/11/29 03:02:15;;;;;;;1.48;1.23;;;4.30;99.90;;;;;;4373536;32;20087;-72
2022/11/29 03:04:47;;;;;;;;;;;4.40;99.90;;;;;;4371291;32;20098;-75
2022/11/29 03:07:46;;;;;;;3.20;1.92;;;4.30;99.90;;;;;;4372630;32;19987;-72
2022/11/29 03:10:51;;;;;;;1.15;0.93;;;4.30;99.90;;;;;;4375139;32;20483;-73
2022/11/29 03:13:25;;;;;;;1.35;1.25;;;4.30;99.90;;;;;;4373155;32;20177;-72
2022/11/29 03:16:02;;;;;;;1.20;1.10;;;4.20;99.90;;;;;;4388135;32;20065;-73
2022/11/29 03:18:41;;;;;;;3.60;2.67;;;4.20;99.90;;;;;;4383640;32;20066;-74
2022/11/29 03:21:10;;;;;;;3.35;1.27;;;4.20;99.90;;;;;;4387671;32;20153;-74
2022/11/29 03:23:41;;;;;;;3.65;2.62;;;4.30;99.90;;;;;;4385658;32;20086;-73
2022/11/29 03:26:13;;;;;;;3.55;2.70;;;4.30;99.90;;;;;;4386004;32;20089;-73
2022/11/29 03:29:05;;;;;;;4.72;1.98;;;4.20;99.90;;;;;;4382944;32;20556;-74
2022/11/29 03:31:36;;;;;;;2.92;1.87;;;4.20;99.90;;;;;;4375121;32;20086;-73
2022/11/29 03:34:29;;;;;;;1.98;1.87;;;4.30;99.90;;;;;;4373032;32;20141;-75
2022/11/29 03:37:04;;;;;;;1.25;1.15;;;4.30;99.90;;;;;;4361356;32;20102;-72
2022/11/29 03:39:58;;;;;;;1.35;1.30;;;4.30;99.90;;;;;;4382068;32;20129;-72
2022/11/29 03:42:29;;;;;;;2.58;1.30;;;4.20;99.90;;;;;;4374596;32;20424;-73
2022/11/29 03:45:17;;;;;;;3.83;1.60;;;4.20;99.90;;;;;;4383615;32;20140;-74
2022/11/29 03:47:56;;;;;;;1.48;1.37;;;4.20;99.90;;;;;;4375502;32;20161;-73
2022/11/29 03:50:31;;;;;;;4.72;2.75;;;4.20;99.90;;;;;;4385342;32;20061;-73
2022/11/29 03:53:14;;;;;;;0.93;0.93;;;4.30;99.90;;;;;;4383841;32;20066;-73
2022/11/29 03:55:52;;;;;;;4.82;2.35;;;4.20;99.90;;;;;;4371198;32;20534;-72
2022/11/29 03:58:46;;;;;;;2.33;2.03;;;4.20;99.90;;;;;;4384433;32;20090;-73
2022/11/29 04:01:36;;;;;;;2.00;1.55;;;4.10;99.90;;;;;;4383511;32;20110;-72
2022/11/29 04:04:23;;;;;;;2.25;1.65;;;4.10;99.90;;;;;;4364745;32;20432;-76
2022/11/29 04:07:24;;;;;;;2.35;1.50;;;4.20;99.90;;;;;;4359153;32;20086;-73
2022/11/29 04:10:15;;;;;;;2.30;1.75;;;4.30;99.90;;;;;;4374757;32;20129;-74
2022/11/29 04:13:02;;;;;;;3.58;2.47;;;4.20;99.90;;;;;;4377253;32;20134;-72
2022/11/29 04:15:48;;;;;;;1.27;1.23;;;4.20;99.90;;;;;;4385023;32;20202;-72
2022/11/29 04:18:35;;;;;;;1.33;1.27;;;4.20;99.90;;;;;;4372455;32;20825;-72
2022/11/29 04:21:39;;;;;;;3.17;2.03;;;4.20;99.90;;;;;;4373779;32;20102;-73
2022/11/29 04:24:35;;;;;;;4.62;2.03;;;4.20;99.90;;;;;;4374841;32;20138;-74
2022/11/29 04:27:29;;;;;;;6.90;2.70;;;4.20;99.90;;;;;;4373816;32;20110;-73
2022/11/29 04:30:04;;;;;;;2.50;2.28;;;4.20;99.90;;;;;;4376514;32;20086;-72
2022/11/29 04:32:51;;;;;;;2.10;1.40;;;4.20;99.90;;;;;;4384442;32;20145;-75
2022/11/29 04:35:55;;;;;;;5.22;2.87;;;4.20;99.90;;;;;;4359662;32;20074;-76
2022/11/29 04:38:43;;;;;;;1.33;1.15;;;4.20;99.90;;;;;;4374847;32;20093;-74
2022/11/29 04:41:48;;;;;;;6.95;2.25;;;4.20;99.90;;;;;;4376050;32;20101;-72
2022/11/29 04:44:29;;;;;;;2.65;2.30;;;4.10;99.90;;;;;;4376337;32;20685;-73
2022/11/29 04:47:02;;;;;;;7.60;2.67;;;4.10;99.90;;;;;;4387932;32;20182;-72
2022/11/29 04:49:55;;;;;;;2.30;2.05;;;4.20;99.90;;;;;;4387261;32;20522;-72
2022/11/29 04:52:31;;;;;;;5.97;3.50;;;4.20;99.90;;;;;;4374740;32;20105;-76
2022/11/29 04:55:17;;;;;;;2.15;1.95;;;4.20;99.90;;;;;;4386966;32;20069;-70
2022/11/29 04:58:07;;;;;;;1.48;1.27;;;4.30;99.90;;;;;;4386337;32;20103;-70
2022/11/29 05:00:44;;;;;;;3.75;1.55;;;4.20;99.90;;;;;;4375961;32;20521;-73
2022/11/29 05:03:22;;;;;;;2.85;2.33;;;4.20;99.90;;;;;;4380988;32;20094;-77
2022/11/29 05:06:00;;;;;;;1.70;1.50;;;4.20;99.90;;;;;;4370807;32;20562;-74
2022/11/29 05:08:47;;;;;;;2.05;1.77;;;4.20;99.90;;;;;;4380792;32;20059;-73
2022/11/29 05:11:40;;;;;;;1.08;0.82;;;4.30;99.90;;;;;;4390032;32;20079;-73
2022/11/29 05:14:34;;;;;;;1.95;1.67;;;4.20;99.90;;;;;;4378439;32;20560;-71
2022/11/29 05:17:23;;;;;;;4.60;2.30;;;4.20;99.90;;;;;;4379605;32;20487;-75
2022/11/29 05:20:06;;;;;;;2.78;2.05;;;4.30;99.90;;;;;;4377142;32;20527;-74
2022/11/29 05:22:58;;;;;;;1.40;1.30;;;4.20;99.90;;;;;;4364733;32;20574;-75
2022/11/29 05:25:30;;;;;;;1.42;1.33;;;4.20;99.90;;;;;;4339636;32;20118;-76
2022/11/29 05:28:06;;;;;;;11.02;2.62;;;4.20;99.90;;;;;;4346176;32;20615;-74
2022/11/29 05:31:02;;;;;;;2.05;1.10;;;4.20;99.90;;;;;;4348735;32;20415;-74
2022/11/29 05:33:47;;;;;;;0.80;0.80;;;4.20;99.90;;;;;;4322991;32;20305;-75
2022/11/29 05:36:34;;;;;;;2.08;1.87;;;4.20;99.90;;;;;;4338841;32;20067;-76
2022/11/29 05:39:30;;;;;;;3.28;2.05;;;4.30;99.90;;;;;;4372574;32;20074;-72
2022/11/29 05:42:30;;;;;;;6.78;2.67;;;4.30;99.90;;;;;;4374836;32;20167;-72
2022/11/29 05:45:03;;;;;;;1.40;1.30;;;4.40;99.90;;;;;;4376845;32;20179;-71
2022/11/29 05:47:38;;;;;;;1.02;1.02;;;4.40;99.90;;;;;;4384712;32;20082;-71
2022/11/29 05:50:25;;;;;;;5.20;2.75;;;4.40;99.90;;;;;;4384798;32;20070;-72
2022/11/29 05:53:15;;;;;;;0.75;0.75;;;4.30;99.90;;;;;;4362450;32;20085;-75
2022/11/29 05:56:07;;;;;;;2.67;2.15;;;4.40;99.90;;;;;;4339226;32;20079;-76
2022/11/29 05:58:48;;;;;;;0.93;0.93;;;4.30;99.90;;;;;;4368449;32;20073;-71
2022/11/29 06:01:42;;;;;;;1.65;1.55;;;4.30;99.90;;;;;;4376878;32;20430;-73
2022/11/29 06:04:20;;;;;;;18.05;4.00;;;4.30;99.90;;;;;;4337826;32;20081;-75
2022/11/29 06:06:56;;;;;;;4.78;2.08;;;4.30;99.90;;;;;;4340445;32;20557;-75
2022/11/29 06:09:30;;;;;;;5.72;2.12;;;4.20;99.90;;;;;;4338529;32;20648;-75
2022/11/29 06:12:02;;;;;;;1.40;1.23;;;4.20;99.90;;;;;;4344285;32;20078;-74
2022/11/29 06:14:45;;;;;;;1.48;1.35;;;4.30;99.90;;;;;;4344345;32;20555;-74
2022/11/29 06:17:31;;;;;;;12.48;4.12;;;4.30;99.90;;;;;;4341801;32;20133;-74
2022/11/29 06:20:18;;;;;;;1.35;1.25;;;4.40;99.90;;;;;;4287747;32;20365;-75
2022/11/29 06:22:58;;;;;;;3.58;1.67;;;4.50;99.90;;;;;;4293310;32;20572;-75
2022/11/29 06:25:33;;;;;;;3.60;2.60;;;4.40;99.90;;;;;;4279337;32;20862;-76
2022/11/29 06:28:25;;;;;;;5.15;2.50;;;4.50;99.90;;;;;;4308998;32;20342;-75
2022/11/29 06:31:00;;;;;;;2.30;2.03;;;4.40;99.90;;;;;;4274016;32;20384;-75
2022/11/29 06:33:53;;;;;;;1.30;1.20;;;4.30;99.90;;;;;;4302700;32;20870;-76
2022/11/29 06:36:26;;;;;;;2.12;1.67;;;4.30;99.90;;;;;;4295109;32;20362;-74
2022/11/29 06:38:52;;;;;;;3.62;2.08;;;4.40;99.90;;;;;;4317687;32;20930;-75
2022/11/29 06:41:20;;;;;;;2.75;2.55;;;4.30;99.90;;;;;;4317952;32;20073;-76
2022/11/29 06:43:47;;;;;;;3.90;1.85;;;4.30;99.90;;;;;;4333253;32;20246;-78
2022/11/29 06:46:33;;;;;;;6.57;1.95;;;4.30;99.90;;;;;;4345387;32;20610;-80
2022/11/29 06:49:39;;;;;;;1.45;1.37;;;4.30;99.90;;;;;;4332893;32;20086;-76
2022/11/29 06:52:40;;;;;;;9.88;3.60;;;4.30;99.90;;;;;;4331566;32;20260;-74
2022/11/29 06:55:13;;;;;;;3.15;2.62;;;4.30;99.90;;;;;;4340215;32;20711;-75
2022/11/29 06:57:55;;;;;;;1.30;1.23;;;4.40;99.90;;;;;;4360576;32;20098;-75
2022/11/29 07:00:27;;;;;;;1.62;1.52;;;4.40;99.90;;;;;;4336594;32;20395;-74
2022/11/29 07:03:22;;;;;;;2.15;1.87;;;4.40;99.90;;;;;;4330604;32;20904;-74
2022/11/29 07:05:47;;;;;;;1.17;1.10;;;4.40;99.90;;;;;;4324614;32;20534;-74
2022/11/29 07:08:17;;;;;;;4.28;1.83;;;4.40;99.90;;;;;;4356700;32;20069;-73
2022/11/29 07:10:45;;;;;;;3.03;1.67;;;4.40;99.90;;;;;;4358314;32;20148;-74
2022/11/29 07:13:13;;;;;;;3.20;2.55;;;4.40;99.90;;;;;;4365128;32;20118;-74
2022/11/29 07:15:51;;;;;;;3.28;2.35;;;4.50;99.90;;;;;;4374453;32;20516;-74
2022/11/29 07:18:57;;;;;;;9.00;3.70;;;4.50;99.90;;;;;;4360234;32;20079;-74
2022/11/29 07:21:47;;;;;;;4.53;2.53;;;4.50;99.90;;;;;;4337270;32;20175;-74
2022/11/29 07:24:32;;;;;;;2.60;2.00;;;4.40;99.90;;;;;;4356446;32;20893;-73
2022/11/29 07:27:07;;;;;;;1.77;1.67;;;4.40;99.90;;;;;;4352805;32;20134;-72
2022/11/29 07:29:49;;;;;;;2.92;1.37;;;4.50;99.90;;;;;;4354249;32;20525;-75
2022/11/29 07:32:29;;;;;;;2.37;1.98;;;4.50;99.90;;;;;;4326318;32;115396;-75
2022/11/29 07:35:08;;;;;;;6.77;2.10;;;4.60;99.90;;;;;;4320350;32;20157;-74
2022/11/29 07:38:08;;;;;;;5.03;2.60;;;4.50;99.90;;;;;;4351314;32;20183;-73
2022/11/29 07:40:49;;;;;;;3.70;1.83;;;4.50;99.90;;;;;;4348214;32;20098;-73
2022/11/29 07:43:47;;;;;;;2.33;1.35;;;4.60;99.90;;;;;;4360319;32;20165;-75
2022/11/29 07:46:13;;;;;;;3.47;2.90;;;4.70;99.90;;;;;;4350470;32;20146;-74
2022/11/29 07:48:39;;;;;;;1.92;1.70;;;4.60;99.90;;;;;;4348451;32;20311;-75
2022/11/29 07:51:05;;;;;;;4.60;1.85;;;4.50;99.90;;;;;;4347723;32;20507;-75
2022/11/29 07:53:31;;;;;;;6.53;1.90;;;4.60;99.90;;;;;;4357285;32;20090;-73
2022/11/29 07:55:57;;;;;;;2.87;2.08;;;4.60;99.90;;;;;;4362770;32;20089;-74
2022/11/29 07:58:23;;;;;;;3.40;2.53;;;4.60;99.90;;;;;;4358291;32;20213;-74
2022/11/29 08:00:48;;;;;;;2.17;1.05;;;4.60;99.90;;;;;;4344649;32;20374;-74
2022/11/29 08:03:14;;;;;;;3.35;2.42;;;4.60;99.90;;;;;;4337080;32;20263;-74
2022/11/29 08:05:43;;;;;;;3.05;2.03;;;4.60;99.90;;;;;;4342546;32;20097;-74
2022/11/29 08:08:09;;;;;;;1.77;1.67;;;4.60;99.90;;;;;;4357856;32;20541;-74
2022/11/29 08:10:34;;;;;;;7.22;3.20;;;4.70;99.90;;;;;;4361371;32;20061;-74
2022/11/29 08:13:00;;;;;;;2.00;1.35;;;4.70;99.90;;;;;;4361673;32;20089;-74
2022/11/29 08:15:26;;;;;;;1.55;1.37;;;4.70;99.90;;;;;;4367666;32;20347;-72
2022/11/29 08:17:52;;;;;;;1.87;1.77;;;4.80;99.90;;;;;;4365487;32;20737;-74
2022/11/29 08:20:18;;;;;;;3.65;2.28;;;4.80;99.90;;;;;;4351700;32;20122;-74
2022/11/29 08:22:43;;;;;;;1.23;1.17;;;4.80;99.90;;;;;;4360351;32;20316;-75
2022/11/29 08:25:10;;;;;;;0.98;0.98;;;4.90;99.90;;;;;;4357673;32;20257;-73
2022/11/29 08:27:36;;;;;;;1.20;1.20;;;4.80;99.90;;;;;;4364109;32;20103;-74
2022/11/29 08:30:04;;;;;;;1.95;1.70;;;4.70;99.90;;;;;;4340098;32;20625;-75
2022/11/29 08:32:30;;;;;;;3.55;2.83;;;4.70;99.90;;;;;;4331880;32;20972;-79
2022/11/29 08:34:55;;;;;;;3.22;2.00;;;4.70;99.90;;;;;;4324971;32;20350;-78
2022/11/29 08:37:22;;;;;;;2.25;1.30;;;4.80;99.90;;;;;;4356616;32;20366;-77
2022/11/29 08:39:47;;;;;;;1.75;1.65;;;4.90;99.90;;;;;;4364872;32;20252;-76
2022/11/29 08:42:13;;;;;;;4.68;2.50;;;5.00;99.90;;;;;;4366118;32;21233;-73
2022/11/29 08:44:38;;;;;;;1.75;1.65;;;4.90;99.90;;;;;;4366438;32;20114;-75
2022/11/29 08:47:35;;;;;;;2.00;1.73;;;4.90;99.90;;;;;;4367204;32;20429;-72
2022/11/29 08:50:04;;;;;;;3.58;1.75;;;4.90;99.90;;;;;;4335573;32;20190;-76
2022/11/29 08:53:41;;;;;;;2.03;1.85;;;4.90;99.90;;;;;;4361018;32;20125;-77
2022/11/29 08:55:21;;;;;;;2.97;1.40;;;4.90;99.90;;;;;;4351248;32;20099;-74
2022/11/29 08:57:48;;;;;;;1.77;1.40;;;4.90;99.90;;;;;;4361137;32;20641;-76
2022/11/29 09:00:14;;;;;;;2.75;1.73;;;5.00;99.90;;;;;;4354818;32;20470;-80
2022/11/29 09:02:39;;;;;;;1.23;1.15;;;5.00;99.90;;;;;;4358269;32;20380;-81
2022/11/29 09:05:07;;;;;;;15.77;4.45;;;5.00;99.90;;;;;;4345965;32;20256;-77
2022/11/29 09:07:33;;;;;;;4.22;2.03;;;5.00;99.90;;;;;;4356882;32;20464;-76
2022/11/29 09:10:03;;;;;;;2.67;1.08;;;5.00;99.90;;;;;;4364262;32;20869;-76
2022/11/29 09:12:29;;;;;;;2.65;2.10;;;5.00;99.90;;;;;;4361303;32;20122;-76
2022/11/29 09:14:55;;;;;;;3.90;1.48;;;5.00;99.90;;;;;;4373419;32;20245;-79
2022/11/29 09:17:20;;;;;;;3.35;1.83;;;5.00;99.90;;;;;;4371394;32;20659;-75
2022/11/29 09:19:46;;;;;;;12.93;2.70;;;5.00;99.90;;;;;;4360700;32;20181;-78
2022/11/29 09:22:11;;;;;;;3.50;1.67;;;5.00;99.90;;;;;;4366600;32;20137;-77
2022/11/29 09:24:37;;;;;;;9.98;2.62;;;5.00;99.90;;;;;;4373557;32;20066;-78
2022/11/29 09:27:03;;;;;;;3.40;2.12;;;5.10;99.90;;;;;;4381288;32;20078;-78
2022/11/29 09:29:28;;;;;;;1.17;1.15;;;5.10;99.90;;;;;;4370562;32;20126;-78
2022/11/29 09:31:55;;;;;;;0.85;0.85;;;5.10;99.90;;;;;;4366066;32;20621;-77
2022/11/29 09:34:21;;;;;;;5.30;2.22;;;5.10;99.90;;;;;;4360259;32;20268;-77
2022/11/29 09:36:48;;;;;;;5.90;3.65;;;5.20;99.90;;;;;;4371703;32;20110;-76
2022/11/29 09:39:14;;;;;;;3.30;2.15;;;5.10;99.90;;;;;;4376845;32;20115;-78
2022/11/29 09:42:05;;;;;;;1.95;1.75;;;5.20;99.90;;;;;;4375596;32;20098;-77
2022/11/29 09:44:39;;;;;;;;;;;5.30;99.90;;;;;;4371321;32;20097;-76
2022/11/29 09:47:36;;;;;;;1.70;1.05;;;5.40;99.90;;;;;;4367109;32;19968;-78
2022/11/29 09:50:31;;;;;;;1.27;1.10;;;5.40;99.90;;;;;;4356917;32;20659;-78
2022/11/29 09:53:17;;;;;;;3.25;2.17;;;5.40;99.90;;;;;;4364136;32;20082;-78
2022/11/29 09:56:11;;;;;;;2.35;1.35;;;5.50;99.90;;;;;;4364293;32;20114;-76
2022/11/29 09:58:51;;;;;;;1.67;1.50;;;5.50;99.90;;;;;;4358397;32;20400;-76
2022/11/29 10:01:23;;;;;;;7.87;2.17;;;5.40;99.90;;;;;;4352014;32;20114;-80
2022/11/29 10:03:52;;;;;;;1.65;1.42;;;5.40;99.90;;;;;;4350249;32;20635;-75
2022/11/29 10:06:33;;;;;;;2.72;1.87;;;5.50;99.90;;;;;;4359915;32;20099;-75
2022/11/29 10:09:04;;;;;;;2.20;1.15;;;5.40;99.90;;;;;;4364213;32;20928;-73
2022/11/29 10:11:31;;;;;;;;;;;5.50;99.90;;;;;;4359594;32;20895;-76
2022/11/29 10:14:04;;;;;;;0.80;0.80;;;5.50;99.90;;;;;;4364496;32;20388;-74
2022/11/29 10:16:51;;;;;;;4.95;2.05;;;5.50;99.90;;;;;;4354027;32;20165;-74
2022/11/29 10:19:39;;;;;;;6.82;2.28;;;5.50;99.90;;;;;;4342482;32;20274;-77
2022/11/29 10:22:26;;;;;;;3.80;2.30;;;5.60;99.90;;;;;;4341627;32;20912;-79
2022/11/29 10:24:57;;;;;;;4.65;2.42;;;5.60;99.90;;;;;;4344846;32;21651;-78
2022/11/29 10:27:23;;;;;;;3.75;3.20;;;5.60;99.90;;;;;;4368727;32;20122;-78
2022/11/29 10:29:50;;;;;;;1.85;1.75;;;5.60;99.90;;;;;;4352318;32;20407;-76
2022/11/29 10:32:20;;;;;;;5.12;2.25;;;5.60;99.90;;;;;;4324573;32;20268;-76
2022/11/29 10:34:49;;;;;;;1.35;1.25;;;5.50;99.90;;;;;;4331769;32;20194;-76
2022/11/29 10:37:20;;;;;;;1.50;1.40;;;5.50;99.90;;;;;;4350490;32;20848;-75
2022/11/29 10:39:49;;;;;;;;;;;5.60;99.90;;;;;;4351980;32;20268;-76
2022/11/29 10:42:52;;;;;;;3.53;1.25;;;5.60;99.90;;;;;;4360351;32;20112;-74
2022/11/29 10:45:16;;;;;;;0.90;0.90;;;5.60;99.90;;;;;;4353382;32;20159;-75
2022/11/29 10:47:44;;;;;;;1.42;1.33;;;5.60;99.90;;;;;;4361970;32;20141;-75
2022/11/29 10:50:28;;;;;;;5.65;2.22;;;5.60;99.90;;;;;;4346743;32;20618;-76
2022/11/29 10:53:00;;;;;;;1.00;1.00;;;5.60;99.90;;;;;;4345594;32;20484;-76
2022/11/29 10:55:29;;;;;;;2.40;1.83;;;5.60;99.90;;;;;;4361949;32;20717;-75
2022/11/29 10:58:17;;;;;;;1.30;1.20;;;5.60;99.90;;;;;;4371075;32;20138;-75
2022/11/29 11:00:49;;;;;;;2.30;1.87;;;5.60;99.90;;;;;;4334782;32;20078;-76
2022/11/29 11:03:23;;;;;;;1.90;1.77;;;5.60;99.90;;;;;;4346982;32;20118;-76
2022/11/29 11:06:00;;;;;;;0.77;0.77;;;5.60;99.90;;;;;;4341702;32;20089;-76
2022/11/29 11:08:27;;;;;;;3.67;1.83;;;5.70;99.90;;;;;;4356160;32;20620;-76
2022/11/29 11:10:54;;;;;;;2.58;1.70;;;5.60;99.90;;;;;;4360513;32;20945;-76
2022/11/29 11:13:24;;;;;;;2.08;1.73;;;5.60;99.90;;;;;;4368341;32;20245;-77
2022/11/29 11:15:56;;;;;;;6.65;2.87;;;5.70;99.90;;;;;;4365810;32;20313;-79
2022/11/29 11:18:27;;;;;;;1.52;1.42;;;5.80;99.90;;;;;;4355285;32;20887;-77
2022/11/29 11:20:56;;;;;;;1.65;1.55;;;5.70;99.90;;;;;;4346874;32;20200;-76
2022/11/29 11:23:27;;;;;;;3.80;2.10;;;5.60;99.90;;;;;;4372080;32;20225;-76
2022/11/29 11:26:04;;;;;;;4.00;1.55;;;5.70;99.90;;;;;;4371329;32;20181;-76
2022/11/29 11:28:38;;;;;;;1.83;1.62;;;5.80;99.90;;;;;;4373334;32;20687;-77
2022/11/29 11:31:11;;;;;;;1.55;1.45;;;5.80;99.90;;;;;;4349225;32;20102;-80
2022/11/29 11:33:41;;;;;;;2.85;1.75;;;5.80;99.90;;;;;;4354551;32;20212;-79
2022/11/29 11:36:23;;;;;;;0.90;0.90;;;5.90;99.90;;;;;;4354700;32;20097;-80
2022/11/29 11:38:51;;;;;;;6.95;2.37;;;5.80;99.90;;;;;;4366104;32;20453;-77
2022/11/29 11:42:41;;;;;;;3.80;2.05;;;5.80;99.90;;;;;;4370622;32;20073;-75
2022/11/29 11:44:35;;;;;;;4.80;2.95;;;5.80;99.90;;;;;;4357844;32;20090;-79
2022/11/29 11:47:05;;;;;;;3.85;2.53;;;5.80;99.90;;;;;;4359236;32;20589;-79
2022/11/29 11:49:35;;;;;;;1.62;1.52;;;5.80;99.90;;;;;;4360805;32;20310;-82
2022/11/29 11:52:05;;;;;;;2.47;1.35;;;5.80;99.90;;;;;;4355796;32;20576;-77
2022/11/29 11:54:31;;;;;;;4.45;2.53;;;5.90;99.90;;;;;;4363323;32;21933;-76
2022/11/29 11:56:58;;;;;;;4.70;2.33;;;6.00;99.90;;;;;;4361174;32;20525;-78
2022/11/29 11:59:25;;;;;;;1.80;1.67;;;5.90;99.90;;;;;;4354454;32;21116;-77
2022/11/29 12:01:52;;;;;;;2.47;1.92;;;6.00;99.90;;;;;;4352423;32;20130;-78
2022/11/29 12:04:32;;;;;;;1.10;0.98;;;6.10;99.90;;;;;;4347908;32;20105;-79
2022/11/29 12:07:01;;;;;;;3.55;2.60;;;6.10;99.90;;;;;;4362104;32;20082;-77
2022/11/29 12:09:47;;;;;;;8.02;2.33;;;6.10;99.90;;;;;;4371704;32;20102;-78
2022/11/29 12:12:36;;;;;;;5.57;3.25;;;6.10;99.90;;;;;;4373453;32;20570;-77
2022/11/29 12:15:26;;;;;;;2.35;1.75;;;6.10;99.90;;;;;;4366666;32;20078;-79
2022/11/29 12:18:03;;;;;;;3.90;2.72;;;6.10;99.90;;;;;;4356293;32;20312;-78
2022/11/29 12:20:37;;;;;;;1.08;0.75;;;6.00;99.90;;;;;;4351625;32;20125;-77
2022/11/29 12:23:18;;;;;;;3.05;1.80;;;6.00;99.90;;;;;;4362574;32;20295;-77
2022/11/29 12:26:06;;;;;;;3.78;2.33;;;6.00;99.90;;;;;;4376344;32;20081;-76
2022/11/29 12:28:37;;;;;;;1.65;1.20;;;6.00;99.90;;;;;;4360175;32;20093;-77
2022/11/29 12:31:26;;;;;;;2.83;1.90;;;5.90;99.90;;;;;;4357447;32;20117;-77
2022/11/29 12:34:19;;;;;;;1.35;1.25;;;6.00;99.90;;;;;;4341223;32;20110;-77
2022/11/29 12:36:58;;;;;;;19.17;1.35;;;6.00;99.90;;;;;;4352003;32;20658;-76
2022/11/29 12:39:47;;;;;;;2.33;1.83;;;6.10;99.90;;;;;;4375118;32;21980;-77
2022/11/29 12:42:16;;;;;;;6.85;1.73;;;6.10;99.90;;;;;;4361092;32;20907;-77
2022/11/29 12:44:59;;;;;;;6.95;2.58;;;6.10;99.90;;;;;;4367762;32;20509;-76
2022/11/29 12:47:41;;;;;;;1.15;1.10;;;6.20;99.90;;;;;;4366697;32;20113;-82
2022/11/29 12:50:35;;;;;;;4.10;2.03;;;6.20;99.90;;;;;;4349403;32;20148;-77
2022/11/29 12:53:22;;;;;;;14.35;2.45;;;6.20;99.90;;;;;;4349887;32;20106;-76
2022/11/29 12:56:04;;;;;;;3.28;2.42;;;6.10;99.90;;;;;;4359598;32;20082;-75
2022/11/29 12:58:45;;;;;;;1.10;1.00;;;6.10;99.90;;;;;;4365682;32;20554;-77
2022/11/29 13:01:20;;;;;;;;;;;6.00;99.90;;;;;;4358681;32;20406;-77
2022/11/29 13:04:00;;;;;;;2.90;1.75;;;6.00;99.90;;;;;;4342160;32;19979;-77
2022/11/29 13:06:37;;;;;;;1.55;1.05;;;6.00;99.90;;;;;;4356542;32;20119;-77
2022/11/29 13:09:15;;;;;;;4.40;1.62;;;6.00;99.90;;;;;;4362512;32;20077;-77
2022/11/29 13:11:51;;;;;;;2.10;1.58;;;5.90;99.90;;;;;;4366645;32;20106;-75
2022/11/29 13:14:25;;;;;;;1.37;1.12;;;5.90;99.90;;;;;;4356511;32;20619;-77
2022/11/29 13:16:57;;;;;;;1.15;1.05;;;6.00;99.90;;;;;;4355173;32;20309;-79
2022/11/29 13:19:40;;;;;;;3.87;1.77;;;6.00;99.90;;;;;;4346110;32;20253;-75
2022/11/29 13:22:31;;;;;;;3.78;2.15;;;6.00;99.90;;;;;;4348271;32;20062;-77
2022/11/29 13:25:00;;;;;;;3.30;1.75;;;6.00;99.90;;;;;;4355396;32;20098;-76
2022/11/29 13:27:31;;;;;;;4.62;2.15;;;6.00;99.90;;;;;;4369549;32;20098;-75
2022/11/29 13:29:58;;;;;;;;;;;6.00;99.90;;;;;;4348810;32;20098;-77
2022/11/29 13:32:34;;;;;;;0.70;0.70;;;6.00;99.90;;;;;;4353290;32;20128;-80
2022/11/29 13:35:06;;;;;;;4.78;2.67;;;6.00;99.90;;;;;;4340317;32;20174;-75
2022/11/29 13:37:54;;;;;;;11.15;2.10;;;5.90;99.90;;;;;;4362129;32;20059;-76
2022/11/29 13:40:36;;;;;;;3.12;1.60;;;5.90;99.90;;;;;;4352292;32;20550;-76
2022/11/29 13:43:19;;;;;;;4.05;1.45;;;5.90;99.90;;;;;;4363107;32;20479;-77
2022/11/29 13:45:59;;;;;;;3.15;2.10;;;5.90;99.90;;;;;;4346331;32;20609;-75
2022/11/29 13:48:32;;;;;;;5.82;1.65;;;5.90;99.90;;;;;;4355346;32;20624;-76